sensor_id;sensor_type;location;lat;lon;timestamp;P1;durP1;ratioP1;P2;durP2;ratioP2
2338;SDS011;1180;51.438;6.978;2023-04-01T00:00:21;1.93;;;1.30;;
2338;SDS011;1180;51.438;6.978;2023-04-01T00:02:48;2.30;;;1.33;;
2338;SDS011;1180;51.438;6.978;2023-04-01T00:05:14;4.50;;;1.40;;
2338;SDS011;1180;51.438;6.978;2023-04-01T00:07:42;5.87;;;1.50;;
2338;SDS011;1180;51.438;6.978;2023-04-01T00:10:11;2.23;;;1.07;;
2338;SDS011;1180;51.438;6.978;2023-04-01T00:12:40;2.03;;;1.20;;
2338;SDS011;1180;51.438;6.978;2023-04-01T00:15:08;1.67;;;0.97;;
2338;SDS011;1180;51.438;6.978;2023-04-01T00:17:36;4.93;;;1.67;;
2338;SDS011;1180;51.438;6.978;2023-04-01T00:20:03;3.03;;;1.00;;
2338;SDS011;1180;51.438;6.978;2023-04-01T00:22:31;3.10;;;1.33;;
2338;SDS011;1180;51.438;6.978;2023-04-01T00:24:58;4.87;;;1.10;;
2338;SDS011;1180;51.438;6.978;2023-04-01T00:27:25;2.50;;;1.20;;
2338;SDS011;1180;51.438;6.978;2023-04-01T00:29:51;4.83;;;1.23;;
2338;SDS011;1180;51.438;6.978;2023-04-01T00:32:18;2.70;;;1.10;;
2338;SDS011;1180;51.438;6.978;2023-04-01T00:34:44;3.20;;;1.10;;
2338;SDS011;1180;51.438;6.978;2023-04-01T00:37:10;2.90;;;0.93;;
2338;SDS011;1180;51.438;6.978;2023-04-01T00:39:37;5.10;;;1.00;;
2338;SDS011;1180;51.438;6.978;2023-04-01T00:42:03;2.20;;;1.13;;
2338;SDS011;1180;51.438;6.978;2023-04-01T00:44:30;3.00;;;0.93;;
2338;SDS011;1180;51.438;6.978;2023-04-01T00:46:59;3.70;;;1.40;;
2338;SDS011;1180;51.438;6.978;2023-04-01T00:49:29;3.00;;;1.10;;
2338;SDS011;1180;51.438;6.978;2023-04-01T00:52:08;4.30;;;1.17;;
2338;SDS011;1180;51.438;6.978;2023-04-01T00:54:36;1.47;;;1.10;;
2338;SDS011;1180;51.438;6.978;2023-04-01T00:57:05;2.00;;;1.07;;
2338;SDS011;1180;51.438;6.978;2023-04-01T00:59:45;1.90;;;0.70;;
2338;SDS011;1180;51.438;6.978;2023-04-01T01:02:14;1.80;;;0.80;;
2338;SDS011;1180;51.438;6.978;2023-04-01T01:04:40;1.10;;;0.60;;
2338;SDS011;1180;51.438;6.978;2023-04-01T01:12:44;1.87;;;1.10;;
2338;SDS011;1180;51.438;6.978;2023-04-01T01:17:58;2.20;;;1.00;;
2338;SDS011;1180;51.438;6.978;2023-04-01T01:29:05;5.40;;;1.20;;
2338;SDS011;1180;51.438;6.978;2023-04-01T01:32:52;2.10;;;0.87;;
2338;SDS011;1180;51.438;6.978;2023-04-01T01:35:06;1.53;;;0.80;;
2338;SDS011;1180;51.438;6.978;2023-04-01T01:37:35;0.90;;;0.80;;
2338;SDS011;1180;51.438;6.978;2023-04-01T01:40:04;3.20;;;0.80;;
2338;SDS011;1180;51.438;6.978;2023-04-01T01:42:33;2.27;;;0.90;;
2338;SDS011;1180;51.438;6.978;2023-04-01T01:45:02;2.43;;;0.90;;
2338;SDS011;1180;51.438;6.978;2023-04-01T01:47:31;1.37;;;0.83;;
2338;SDS011;1180;51.438;6.978;2023-04-01T01:50:00;1.60;;;1.50;;
2338;SDS011;1180;51.438;6.978;2023-04-01T01:52:29;1.73;;;0.60;;
2338;SDS011;1180;51.438;6.978;2023-04-01T01:54:55;1.30;;;0.80;;
2338;SDS011;1180;51.438;6.978;2023-04-01T01:57:29;1.30;;;0.87;;
2338;SDS011;1180;51.438;6.978;2023-04-01T02:00:06;1.77;;;0.90;;
2338;SDS011;1180;51.438;6.978;2023-04-01T02:02:41;1.83;;;1.00;;
2338;SDS011;1180;51.438;6.978;2023-04-01T02:05:10;1.57;;;1.03;;
2338;SDS011;1180;51.438;6.978;2023-04-01T02:07:42;2.00;;;0.80;;
2338;SDS011;1180;51.438;6.978;2023-04-01T02:10:13;1.33;;;1.00;;
2338;SDS011;1180;51.438;6.978;2023-04-01T02:12:39;1.80;;;0.87;;
2338;SDS011;1180;51.438;6.978;2023-04-01T02:15:10;2.03;;;1.03;;
2338;SDS011;1180;51.438;6.978;2023-04-01T02:17:39;3.17;;;0.80;;
2338;SDS011;1180;51.438;6.978;2023-04-01T02:20:20;3.47;;;0.90;;
2338;SDS011;1180;51.438;6.978;2023-04-01T02:22:49;3.83;;;1.10;;
2338;SDS011;1180;51.438;6.978;2023-04-01T02:25:18;1.27;;;0.80;;
2338;SDS011;1180;51.438;6.978;2023-04-01T02:27:48;1.63;;;0.60;;
2338;SDS011;1180;51.438;6.978;2023-04-01T02:30:15;1.13;;;0.73;;
2338;SDS011;1180;51.438;6.978;2023-04-01T02:32:42;1.83;;;0.70;;
2338;SDS011;1180;51.438;6.978;2023-04-01T02:35:12;1.00;;;0.70;;
2338;SDS011;1180;51.438;6.978;2023-04-01T02:37:40;5.17;;;0.97;;
2338;SDS011;1180;51.438;6.978;2023-04-01T02:40:08;2.17;;;1.00;;
2338;SDS011;1180;51.438;6.978;2023-04-01T02:42:38;5.73;;;1.20;;
2338;SDS011;1180;51.438;6.978;2023-04-01T02:45:04;1.63;;;1.03;;
2338;SDS011;1180;51.438;6.978;2023-04-01T02:47:31;1.40;;;1.07;;
2338;SDS011;1180;51.438;6.978;2023-04-01T02:49:57;2.07;;;1.20;;
2338;SDS011;1180;51.438;6.978;2023-04-01T02:52:26;1.33;;;0.70;;
2338;SDS011;1180;51.438;6.978;2023-04-01T02:54:55;2.97;;;0.97;;
2338;SDS011;1180;51.438;6.978;2023-04-01T02:57:22;1.20;;;0.90;;
2338;SDS011;1180;51.438;6.978;2023-04-01T02:59:48;1.57;;;0.87;;
2338;SDS011;1180;51.438;6.978;2023-04-01T03:02:13;4.53;;;0.70;;
2338;SDS011;1180;51.438;6.978;2023-04-01T03:04:39;4.13;;;1.27;;
2338;SDS011;1180;51.438;6.978;2023-04-01T03:07:06;1.20;;;1.00;;
2338;SDS011;1180;51.438;6.978;2023-04-01T03:09:35;2.17;;;0.97;;
2338;SDS011;1180;51.438;6.978;2023-04-01T03:12:01;1.13;;;0.73;;
2338;SDS011;1180;51.438;6.978;2023-04-01T03:14:26;1.93;;;0.80;;
2338;SDS011;1180;51.438;6.978;2023-04-01T03:16:52;3.90;;;0.73;;
2338;SDS011;1180;51.438;6.978;2023-04-01T03:19:18;1.80;;;1.00;;
2338;SDS011;1180;51.438;6.978;2023-04-01T03:21:43;1.97;;;0.87;;
2338;SDS011;1180;51.438;6.978;2023-04-01T03:24:09;1.30;;;0.93;;
2338;SDS011;1180;51.438;6.978;2023-04-01T03:26:35;2.63;;;0.90;;
2338;SDS011;1180;51.438;6.978;2023-04-01T03:29:00;3.07;;;0.97;;
2338;SDS011;1180;51.438;6.978;2023-04-01T03:31:26;2.20;;;1.00;;
2338;SDS011;1180;51.438;6.978;2023-04-01T03:33:52;0.80;;;0.70;;
2338;SDS011;1180;51.438;6.978;2023-04-01T03:36:17;1.33;;;0.80;;
2338;SDS011;1180;51.438;6.978;2023-04-01T03:38:43;1.07;;;0.70;;
2338;SDS011;1180;51.438;6.978;2023-04-01T03:41:14;1.53;;;0.80;;
2338;SDS011;1180;51.438;6.978;2023-04-01T03:43:40;2.93;;;1.20;;
2338;SDS011;1180;51.438;6.978;2023-04-01T03:46:07;2.60;;;0.70;;
2338;SDS011;1180;51.438;6.978;2023-04-01T03:48:33;1.93;;;1.00;;
2338;SDS011;1180;51.438;6.978;2023-04-01T03:50:58;2.47;;;0.90;;
2338;SDS011;1180;51.438;6.978;2023-04-01T03:53:24;1.10;;;0.90;;
2338;SDS011;1180;51.438;6.978;2023-04-01T03:55:50;2.53;;;0.90;;
2338;SDS011;1180;51.438;6.978;2023-04-01T03:58:16;1.33;;;0.80;;
2338;SDS011;1180;51.438;6.978;2023-04-01T04:00:42;1.57;;;0.90;;
2338;SDS011;1180;51.438;6.978;2023-04-01T04:03:08;1.77;;;0.93;;
2338;SDS011;1180;51.438;6.978;2023-04-01T04:05:33;1.00;;;0.90;;
2338;SDS011;1180;51.438;6.978;2023-04-01T04:07:59;1.63;;;1.07;;
2338;SDS011;1180;51.438;6.978;2023-04-01T04:10:25;1.00;;;0.90;;
2338;SDS011;1180;51.438;6.978;2023-04-01T04:12:51;2.80;;;0.83;;
2338;SDS011;1180;51.438;6.978;2023-04-01T04:15:17;3.00;;;1.37;;
2338;SDS011;1180;51.438;6.978;2023-04-01T04:17:44;1.93;;;1.60;;
2338;SDS011;1180;51.438;6.978;2023-04-01T04:20:11;1.50;;;0.77;;
2338;SDS011;1180;51.438;6.978;2023-04-01T04:22:37;1.10;;;0.90;;
2338;SDS011;1180;51.438;6.978;2023-04-01T04:25:04;1.37;;;0.80;;
2338;SDS011;1180;51.438;6.978;2023-04-01T04:27:30;1.00;;;0.70;;
2338;SDS011;1180;51.438;6.978;2023-04-01T04:29:55;1.50;;;1.00;;
2338;SDS011;1180;51.438;6.978;2023-04-01T04:32:21;1.10;;;0.90;;
2338;SDS011;1180;51.438;6.978;2023-04-01T04:34:47;1.80;;;1.00;;
2338;SDS011;1180;51.438;6.978;2023-04-01T04:37:13;1.13;;;1.00;;
2338;SDS011;1180;51.438;6.978;2023-04-01T04:39:38;1.40;;;1.13;;
2338;SDS011;1180;51.438;6.978;2023-04-01T04:42:05;1.07;;;0.90;;
2338;SDS011;1180;51.438;6.978;2023-04-01T04:44:31;1.20;;;0.93;;
2338;SDS011;1180;51.438;6.978;2023-04-01T04:46:57;0.97;;;0.80;;
2338;SDS011;1180;51.438;6.978;2023-04-01T04:49:23;2.10;;;1.00;;
2338;SDS011;1180;51.438;6.978;2023-04-01T04:51:49;1.80;;;1.27;;
2338;SDS011;1180;51.438;6.978;2023-04-01T04:54:15;1.40;;;1.03;;
2338;SDS011;1180;51.438;6.978;2023-04-01T04:56:41;1.60;;;1.50;;
2338;SDS011;1180;51.438;6.978;2023-04-01T04:59:07;1.60;;;1.20;;
2338;SDS011;1180;51.438;6.978;2023-04-01T05:01:34;1.20;;;1.10;;
2338;SDS011;1180;51.438;6.978;2023-04-01T05:04:01;1.93;;;1.10;;
2338;SDS011;1180;51.438;6.978;2023-04-01T05:06:27;1.50;;;1.40;;
2338;SDS011;1180;51.438;6.978;2023-04-01T05:08:54;2.17;;;1.20;;
2338;SDS011;1180;51.438;6.978;2023-04-01T05:11:20;1.33;;;1.20;;
2338;SDS011;1180;51.438;6.978;2023-04-01T05:13:46;2.33;;;1.20;;
2338;SDS011;1180;51.438;6.978;2023-04-01T05:16:14;1.20;;;1.10;;
2338;SDS011;1180;51.438;6.978;2023-04-01T05:18:41;1.77;;;1.00;;
2338;SDS011;1180;51.438;6.978;2023-04-01T05:21:08;1.30;;;1.10;;
2338;SDS011;1180;51.438;6.978;2023-04-01T05:23:35;1.10;;;1.00;;
2338;SDS011;1180;51.438;6.978;2023-04-01T05:26:08;1.50;;;1.33;;
2338;SDS011;1180;51.438;6.978;2023-04-01T05:28:36;1.40;;;1.30;;
2338;SDS011;1180;51.438;6.978;2023-04-01T05:31:02;1.33;;;1.23;;
2338;SDS011;1180;51.438;6.978;2023-04-01T05:33:29;1.13;;;1.03;;
2338;SDS011;1180;51.438;6.978;2023-04-01T05:35:56;1.63;;;1.53;;
2338;SDS011;1180;51.438;6.978;2023-04-01T05:38:32;1.73;;;1.20;;
2338;SDS011;1180;51.438;6.978;2023-04-01T05:41:01;2.93;;;1.33;;
2338;SDS011;1180;51.438;6.978;2023-04-01T05:43:27;1.77;;;1.67;;
2338;SDS011;1180;51.438;6.978;2023-04-01T05:45:54;3.93;;;1.40;;
2338;SDS011;1180;51.438;6.978;2023-04-01T05:48:20;1.70;;;1.60;;
2338;SDS011;1180;51.438;6.978;2023-04-01T05:50:49;1.40;;;1.30;;
2338;SDS011;1180;51.438;6.978;2023-04-01T05:53:15;2.10;;;1.70;;
2338;SDS011;1180;51.438;6.978;2023-04-01T05:55:40;1.60;;;1.50;;
2338;SDS011;1180;51.438;6.978;2023-04-01T05:58:06;3.37;;;1.70;;
2338;SDS011;1180;51.438;6.978;2023-04-01T06:00:32;1.93;;;1.73;;
2338;SDS011;1180;51.438;6.978;2023-04-01T06:02:58;1.67;;;1.37;;
2338;SDS011;1180;51.438;6.978;2023-04-01T06:05:27;2.20;;;1.30;;
2338;SDS011;1180;51.438;6.978;2023-04-01T06:07:57;1.20;;;1.10;;
2338;SDS011;1180;51.438;6.978;2023-04-01T06:10:36;1.60;;;1.30;;
2338;SDS011;1180;51.438;6.978;2023-04-01T06:35:16;1.50;;;1.40;;
2338;SDS011;1180;51.438;6.978;2023-04-01T06:45:49;1.50;;;1.37;;
2338;SDS011;1180;51.438;6.978;2023-04-01T06:48:43;1.70;;;1.50;;
2338;SDS011;1180;51.438;6.978;2023-04-01T06:52:07;1.90;;;1.60;;
2338;SDS011;1180;51.438;6.978;2023-04-01T06:57:09;1.60;;;1.47;;
2338;SDS011;1180;51.438;6.978;2023-04-01T07:00:03;1.70;;;1.60;;
2338;SDS011;1180;51.438;6.978;2023-04-01T07:02:45;2.30;;;1.37;;
2338;SDS011;1180;51.438;6.978;2023-04-01T07:05:18;3.27;;;1.70;;
2338;SDS011;1180;51.438;6.978;2023-04-01T07:07:46;1.60;;;1.50;;
2338;SDS011;1180;51.438;6.978;2023-04-01T07:10:17;4.90;;;1.73;;
2338;SDS011;1180;51.438;6.978;2023-04-01T07:12:55;1.60;;;1.50;;
2338;SDS011;1180;51.438;6.978;2023-04-01T07:15:34;1.83;;;1.70;;
2338;SDS011;1180;51.438;6.978;2023-04-01T07:18:18;1.73;;;1.63;;
2338;SDS011;1180;51.438;6.978;2023-04-01T07:20:47;1.57;;;1.47;;
2338;SDS011;1180;51.438;6.978;2023-04-01T07:23:22;3.10;;;1.70;;
2338;SDS011;1180;51.438;6.978;2023-04-01T07:25:52;4.13;;;1.70;;
2338;SDS011;1180;51.438;6.978;2023-04-01T07:28:24;2.17;;;1.97;;
2338;SDS011;1180;51.438;6.978;2023-04-01T07:31:07;1.60;;;1.50;;
2338;SDS011;1180;51.438;6.978;2023-04-01T07:33:45;1.80;;;1.70;;
2338;SDS011;1180;51.438;6.978;2023-04-01T07:36:24;1.60;;;1.50;;
2338;SDS011;1180;51.438;6.978;2023-04-01T07:39:00;2.80;;;2.60;;
2338;SDS011;1180;51.438;6.978;2023-04-01T07:47:15;2.40;;;2.03;;
2338;SDS011;1180;51.438;6.978;2023-04-01T07:50:25;2.30;;;2.10;;
2338;SDS011;1180;51.438;6.978;2023-04-01T07:53:09;4.37;;;2.20;;
2338;SDS011;1180;51.438;6.978;2023-04-01T07:59:00;3.60;;;3.30;;
2338;SDS011;1180;51.438;6.978;2023-04-01T08:01:48;3.30;;;3.07;;
2338;SDS011;1180;51.438;6.978;2023-04-01T08:12:25;4.43;;;4.03;;
2338;SDS011;1180;51.438;6.978;2023-04-01T08:20:41;5.27;;;4.73;;
2338;SDS011;1180;51.438;6.978;2023-04-01T08:23:14;4.37;;;3.60;;
2338;SDS011;1180;51.438;6.978;2023-04-01T08:25:44;5.23;;;4.80;;
2338;SDS011;1180;51.438;6.978;2023-04-01T08:28:29;4.80;;;4.40;;
2338;SDS011;1180;51.438;6.978;2023-04-01T08:33:43;4.83;;;4.43;;
2338;SDS011;1180;51.438;6.978;2023-04-01T08:39:06;5.60;;;5.10;;
2338;SDS011;1180;51.438;6.978;2023-04-01T08:52:58;4.70;;;4.30;;
2338;SDS011;1180;51.438;6.978;2023-04-01T08:55:41;5.60;;;4.97;;
2338;SDS011;1180;51.438;6.978;2023-04-01T08:58:42;7.13;;;5.43;;
2338;SDS011;1180;51.438;6.978;2023-04-01T09:06:55;5.77;;;5.17;;
2338;SDS011;1180;51.438;6.978;2023-04-01T09:09:53;7.70;;;5.43;;
2338;SDS011;1180;51.438;6.978;2023-04-01T09:32:34;5.23;;;4.73;;
2338;SDS011;1180;51.438;6.978;2023-04-01T09:37:55;6.80;;;5.50;;
2338;SDS011;1180;51.438;6.978;2023-04-01T09:46:09;6.30;;;5.70;;
2338;SDS011;1180;51.438;6.978;2023-04-01T09:51:39;8.10;;;6.87;;
2338;SDS011;1180;51.438;6.978;2023-04-01T09:54:46;7.93;;;7.13;;
2338;SDS011;1180;51.438;6.978;2023-04-01T10:03:02;6.73;;;6.00;;
2338;SDS011;1180;51.438;6.978;2023-04-01T10:08:33;7.50;;;6.53;;
2338;SDS011;1180;51.438;6.978;2023-04-01T10:11:29;7.13;;;6.27;;
2338;SDS011;1180;51.438;6.978;2023-04-01T10:14:26;6.73;;;6.10;;
2338;SDS011;1180;51.438;6.978;2023-04-01T10:20:01;6.83;;;5.83;;
2338;SDS011;1180;51.438;6.978;2023-04-01T10:23:13;8.93;;;7.60;;
2338;SDS011;1180;51.438;6.978;2023-04-01T10:31:45;8.50;;;7.70;;
2338;SDS011;1180;51.438;6.978;2023-04-01T10:37:44;6.60;;;5.90;;
2338;SDS011;1180;51.438;6.978;2023-04-01T11:32:53;9.73;;;6.40;;
2338;SDS011;1180;51.438;6.978;2023-04-01T11:44:17;7.37;;;6.20;;
2338;SDS011;1180;51.438;6.978;2023-04-01T11:52:04;10.10;;;7.77;;
2338;SDS011;1180;51.438;6.978;2023-04-01T11:55:01;7.60;;;6.77;;
2338;SDS011;1180;51.438;6.978;2023-04-01T12:04:11;8.30;;;7.50;;
2338;SDS011;1180;51.438;6.978;2023-04-01T12:06:51;6.70;;;6.10;;
2338;SDS011;1180;51.438;6.978;2023-04-01T12:09:48;8.67;;;7.20;;
2338;SDS011;1180;51.438;6.978;2023-04-01T12:12:24;8.47;;;7.67;;
2338;SDS011;1180;51.438;6.978;2023-04-01T12:17:34;9.10;;;8.20;;
2338;SDS011;1180;51.438;6.978;2023-04-01T12:25:20;11.07;;;9.10;;
2338;SDS011;1180;51.438;6.978;2023-04-01T12:30:40;11.00;;;9.97;;
2338;SDS011;1180;51.438;6.978;2023-04-01T12:49:08;9.50;;;6.80;;
2338;SDS011;1180;51.438;6.978;2023-04-01T12:54:40;7.53;;;6.83;;
2338;SDS011;1180;51.438;6.978;2023-04-01T13:03:44;6.73;;;6.00;;
2338;SDS011;1180;51.438;6.978;2023-04-01T13:09:11;6.10;;;5.30;;
2338;SDS011;1180;51.438;6.978;2023-04-01T13:14:21;5.93;;;5.43;;
2338;SDS011;1180;51.438;6.978;2023-04-01T13:17:12;6.73;;;5.87;;
2338;SDS011;1180;51.438;6.978;2023-04-01T13:23:02;6.57;;;5.97;;
2338;SDS011;1180;51.438;6.978;2023-04-01T13:28:20;6.20;;;5.60;;
2338;SDS011;1180;51.438;6.978;2023-04-01T13:31:14;6.30;;;5.70;;
2338;SDS011;1180;51.438;6.978;2023-04-01T13:36:35;5.80;;;5.20;;
2338;SDS011;1180;51.438;6.978;2023-04-01T13:41:59;6.70;;;6.10;;
2338;SDS011;1180;51.438;6.978;2023-04-01T13:52:47;4.50;;;3.93;;
2338;SDS011;1180;51.438;6.978;2023-04-01T14:01:17;6.33;;;5.70;;
2338;SDS011;1180;51.438;6.978;2023-04-01T14:09:33;5.73;;;5.23;;
2338;SDS011;1180;51.438;6.978;2023-04-01T14:20:40;7.70;;;5.50;;
2338;SDS011;1180;51.438;6.978;2023-04-01T14:26:12;6.30;;;5.70;;
2338;SDS011;1180;51.438;6.978;2023-04-01T14:31:41;8.43;;;6.00;;
2338;SDS011;1180;51.438;6.978;2023-04-01T14:48:48;6.43;;;5.83;;
2338;SDS011;1180;51.438;6.978;2023-04-01T14:51:16;7.80;;;6.50;;
2338;SDS011;1180;51.438;6.978;2023-04-01T14:56:43;7.40;;;6.70;;
2338;SDS011;1180;51.438;6.978;2023-04-01T15:04:58;6.43;;;5.83;;
2338;SDS011;1180;51.438;6.978;2023-04-01T15:21:43;6.20;;;5.60;;
2338;SDS011;1180;51.438;6.978;2023-04-01T15:24:24;7.10;;;6.33;;
2338;SDS011;1180;51.438;6.978;2023-04-01T15:32:27;5.27;;;4.70;;
2338;SDS011;1180;51.438;6.978;2023-04-01T15:43:41;4.37;;;3.63;;
2338;SDS011;1180;51.438;6.978;2023-04-01T15:49:19;4.93;;;4.00;;
2338;SDS011;1180;51.438;6.978;2023-04-01T15:52:07;3.90;;;3.33;;
2338;SDS011;1180;51.438;6.978;2023-04-01T15:57:38;3.67;;;3.37;;
2338;SDS011;1180;51.438;6.978;2023-04-01T16:09:14;4.90;;;4.00;;
2338;SDS011;1180;51.438;6.978;2023-04-01T16:17:05;4.30;;;4.00;;
2338;SDS011;1180;51.438;6.978;2023-04-01T16:19:55;3.97;;;3.67;;
2338;SDS011;1180;51.438;6.978;2023-04-01T16:28:18;4.70;;;4.30;;
2338;SDS011;1180;51.438;6.978;2023-04-01T16:31:06;5.00;;;4.60;;
2338;SDS011;1180;51.438;6.978;2023-04-01T16:33:40;4.87;;;4.50;;
2338;SDS011;1180;51.438;6.978;2023-04-01T16:41:24;5.20;;;4.63;;
2338;SDS011;1180;51.438;6.978;2023-04-01T16:44:43;5.23;;;4.67;;
2338;SDS011;1180;51.438;6.978;2023-04-01T16:46:54;5.47;;;4.50;;
2338;SDS011;1180;51.438;6.978;2023-04-01T16:49:33;5.73;;;5.07;;
2338;SDS011;1180;51.438;6.978;2023-04-01T16:54:56;13.43;;;5.90;;
2338;SDS011;1180;51.438;6.978;2023-04-01T16:57:37;5.83;;;5.17;;
2338;SDS011;1180;51.438;6.978;2023-04-01T17:00:23;4.37;;;3.97;;
2338;SDS011;1180;51.438;6.978;2023-04-01T17:08:32;4.87;;;4.47;;
2338;SDS011;1180;51.438;6.978;2023-04-01T17:16:10;6.20;;;5.50;;
2338;SDS011;1180;51.438;6.978;2023-04-01T17:19:01;6.43;;;5.90;;
2338;SDS011;1180;51.438;6.978;2023-04-01T17:27:18;6.30;;;5.70;;
2338;SDS011;1180;51.438;6.978;2023-04-01T17:33:03;7.33;;;6.10;;
2338;SDS011;1180;51.438;6.978;2023-04-01T17:35:59;6.90;;;6.20;;
2338;SDS011;1180;51.438;6.978;2023-04-01T17:38:54;7.77;;;6.90;;
2338;SDS011;1180;51.438;6.978;2023-04-01T18:00:33;9.37;;;7.63;;
2338;SDS011;1180;51.438;6.978;2023-04-01T18:03:24;8.27;;;7.57;;
2338;SDS011;1180;51.438;6.978;2023-04-01T18:08:50;10.50;;;9.10;;
2338;SDS011;1180;51.438;6.978;2023-04-01T18:14:37;9.57;;;8.57;;
2338;SDS011;1180;51.438;6.978;2023-04-01T18:25:43;11.97;;;8.73;;
2338;SDS011;1180;51.438;6.978;2023-04-01T18:38:50;8.53;;;7.67;;
2338;SDS011;1180;51.438;6.978;2023-04-01T18:41:29;8.73;;;7.93;;
2338;SDS011;1180;51.438;6.978;2023-04-01T18:44:23;10.07;;;8.33;;
2338;SDS011;1180;51.438;6.978;2023-04-01T18:46:55;7.83;;;7.03;;
2338;SDS011;1180;51.438;6.978;2023-04-01T18:52:47;7.47;;;6.77;;
2338;SDS011;1180;51.438;6.978;2023-04-01T18:55:30;9.33;;;8.43;;
2338;SDS011;1180;51.438;6.978;2023-04-01T18:58:11;8.60;;;7.70;;
2338;SDS011;1180;51.438;6.978;2023-04-01T19:00:51;8.07;;;7.27;;
2338;SDS011;1180;51.438;6.978;2023-04-01T19:03:28;9.23;;;8.33;;
2338;SDS011;1180;51.438;6.978;2023-04-01T19:06:00;8.73;;;7.83;;
2338;SDS011;1180;51.438;6.978;2023-04-01T19:08:40;8.37;;;7.53;;
2338;SDS011;1180;51.438;6.978;2023-04-01T19:27:47;3.70;;;3.37;;
2338;SDS011;1180;51.438;6.978;2023-04-01T19:38:52;5.27;;;4.77;;
2338;SDS011;1180;51.438;6.978;2023-04-01T19:57:59;3.00;;;2.80;;
2338;SDS011;1180;51.438;6.978;2023-04-01T20:00:58;2.83;;;2.63;;
2338;SDS011;1180;51.438;6.978;2023-04-01T20:09:31;3.50;;;2.90;;
2338;SDS011;1180;51.438;6.978;2023-04-01T20:15:22;4.47;;;3.30;;
2338;SDS011;1180;51.438;6.978;2023-04-01T20:17:54;3.03;;;2.83;;
2338;SDS011;1180;51.438;6.978;2023-04-01T20:20:26;4.00;;;3.30;;
2338;SDS011;1180;51.438;6.978;2023-04-01T20:25:26;3.80;;;3.50;;
2338;SDS011;1180;51.438;6.978;2023-04-01T20:28:05;4.37;;;3.67;;
2338;SDS011;1180;51.438;6.978;2023-04-01T20:33:06;4.50;;;4.10;;
2338;SDS011;1180;51.438;6.978;2023-04-01T20:41:40;4.57;;;3.60;;
2338;SDS011;1180;51.438;6.978;2023-04-01T20:52:56;4.10;;;3.70;;
2338;SDS011;1180;51.438;6.978;2023-04-01T21:04:08;3.67;;;3.37;;
2338;SDS011;1180;51.438;6.978;2023-04-01T21:06:52;4.20;;;3.80;;
2338;SDS011;1180;51.438;6.978;2023-04-01T21:12:45;3.33;;;3.03;;
2338;SDS011;1180;51.438;6.978;2023-04-01T21:15:30;3.47;;;3.17;;
2338;SDS011;1180;51.438;6.978;2023-04-01T21:20:54;3.60;;;3.30;;
2338;SDS011;1180;51.438;6.978;2023-04-01T21:23:44;3.50;;;3.30;;
2338;SDS011;1180;51.438;6.978;2023-04-01T21:29:39;2.80;;;2.60;;
2338;SDS011;1180;51.438;6.978;2023-04-01T21:38:06;5.00;;;4.13;;
2338;SDS011;1180;51.438;6.978;2023-04-01T21:43:40;3.97;;;3.63;;
2338;SDS011;1180;51.438;6.978;2023-04-01T21:46:22;4.30;;;3.90;;
2338;SDS011;1180;51.438;6.978;2023-04-01T21:49:53;5.27;;;4.77;;
2338;SDS011;1180;51.438;6.978;2023-04-01T22:05:11;4.03;;;3.73;;
2338;SDS011;1180;51.438;6.978;2023-04-01T22:07:45;4.67;;;4.00;;
2338;SDS011;1180;51.438;6.978;2023-04-01T22:13:58;4.50;;;4.10;;
2338;SDS011;1180;51.438;6.978;2023-04-01T22:19:09;5.50;;;5.00;;
2338;SDS011;1180;51.438;6.978;2023-04-01T22:28:24;5.90;;;5.40;;
2338;SDS011;1180;51.438;6.978;2023-04-01T22:30:33;6.47;;;5.87;;
2338;SDS011;1180;51.438;6.978;2023-04-01T22:43:54;5.60;;;5.10;;
2338;SDS011;1180;51.438;6.978;2023-04-01T22:49:18;6.23;;;5.03;;
2338;SDS011;1180;51.438;6.978;2023-04-01T22:51:51;5.23;;;4.73;;
2338;SDS011;1180;51.438;6.978;2023-04-01T22:54:39;5.00;;;4.57;;
2338;SDS011;1180;51.438;6.978;2023-04-01T23:02:24;4.83;;;4.40;;
2338;SDS011;1180;51.438;6.978;2023-04-01T23:04:54;5.03;;;4.53;;
2338;SDS011;1180;51.438;6.978;2023-04-01T23:10:02;6.93;;;6.23;;
2338;SDS011;1180;51.438;6.978;2023-04-01T23:12:37;7.10;;;6.40;;
2338;SDS011;1180;51.438;6.978;2023-04-01T23:15:05;8.13;;;7.30;;
2338;SDS011;1180;51.438;6.978;2023-04-01T23:17:55;7.00;;;6.30;;
2338;SDS011;1180;51.438;6.978;2023-04-01T23:20:26;7.90;;;6.90;;
2338;SDS011;1180;51.438;6.978;2023-04-01T23:31:03;7.33;;;6.50;;
2338;SDS011;1180;51.438;6.978;2023-04-01T23:33:29;7.63;;;6.83;;
2338;SDS011;1180;51.438;6.978;2023-04-01T23:36:17;5.60;;;5.10;;
2338;SDS011;1180;51.438;6.978;2023-04-01T23:38:42;7.30;;;6.57;;
2338;SDS011;1180;51.438;6.978;2023-04-01T23:41:17;7.83;;;7.03;;
2338;SDS011;1180;51.438;6.978;2023-04-01T23:43:51;7.17;;;6.50;;
2338;SDS011;1180;51.438;6.978;2023-04-01T23:46:21;7.20;;;6.30;;
2338;SDS011;1180;51.438;6.978;2023-04-01T23:48:47;5.77;;;5.27;;
2338;SDS011;1180;51.438;6.978;2023-04-01T23:51:17;6.60;;;6.00;;
2338;SDS011;1180;51.438;6.978;2023-04-01T23:53:46;6.87;;;5.50;;
2338;SDS011;1180;51.438;6.978;2023-04-01T23:56:16;6.93;;;6.27;;
2338;SDS011;1180;51.438;6.978;2023-04-01T23:58:43;6.87;;;6.17;;
